Panola, South Carolina
Current Conditions -  °F | °C
As of 3:43 PM on Saturday 20 Dec 2014 (Local Time) from KSSC Reporting Station
Overcast Overcast  
Wind Chill: 42°   Ceiling: 1300
Heat Index: 46°   Visibility: 10mi
Dew Point: 43°   Wind: 8mph
Humidity: 87%   Direction: 40°NE
Pressure: 30.18"   Gusts: NA
Location:  33.7445°N, 80.5249°W
Report Text: KSSC 202043Z AUTO 04007KT 10SM BKN013 OVC019 08/06 A3018 RMK AO2 CIG 013V019 BKN V SCT $
Loading
Personal Weather Stations






























Interactive Weather Map New forecast layout! Learn more

10-Day Weather Forecast

Advertisements
Track Severe Weather on mobile